Time;durP1;ratioP1;P1;durP2;ratioP2;P2;SDS_P1;SDS_P2;PMS_P1;PMS_P2;Temp;Humidity;BMP_temperature;BMP_pressure;BME280_temperature;BME280_humidity;BME280_pressure;Samples;Min_cycle;Max_cycle;Signal;HPM_P1;HPM_P2
2023/01/20 00:02:15;;;;;;;47.95;11.68;;;3.60;97.30;;;;;;5041446;28;20051;-74
2023/01/20 00:04:41;;;;;;;58.67;12.70;;;3.60;97.30;;;;;;5043166;28;20569;-73
2023/01/20 00:07:06;;;;;;;223.90;20.23;;;3.50;97.30;;;;;;5048210;28;20112;-73
2023/01/20 00:09:32;;;;;;;88.03;14.27;;;3.50;97.40;;;;;;5040337;28;20493;-73
2023/01/20 00:11:58;;;;;;;151.45;23.33;;;3.40;97.60;;;;;;5054263;28;20032;-73
2023/01/20 00:14:24;;;;;;;73.10;18.27;;;3.40;97.60;;;;;;5020643;28;20028;-74
2023/01/20 00:16:50;;;;;;;124.35;21.13;;;3.30;97.60;;;;;;5052829;28;20027;-73
2023/01/20 00:19:16;;;;;;;135.30;26.67;;;3.40;97.70;;;;;;5035748;28;20025;-72
2023/01/20 00:21:43;;;;;;;72.00;22.80;;;3.40;97.80;;;;;;5029926;28;20097;-73
2023/01/20 00:24:09;;;;;;;49.58;21.27;;;3.40;97.80;;;;;;5038115;28;20017;-72
2023/01/20 00:26:35;;;;;;;71.55;24.80;;;3.40;97.80;;;;;;5053367;28;20028;-73
2023/01/20 00:29:00;;;;;;;81.03;24.67;;;3.50;97.70;;;;;;5031656;28;20087;-72
2023/01/20 00:31:28;;;;;;;44.42;23.73;;;3.50;97.70;;;;;;5040714;28;20085;-73
2023/01/20 00:33:56;;;;;;;47.60;24.95;;;3.50;97.80;;;;;;5030462;28;20064;-73
2023/01/20 00:36:23;;;;;;;49.25;27.88;;;3.60;97.90;;;;;;5048104;28;20037;-73
2023/01/20 00:38:49;;;;;;;46.70;27.05;;;3.60;97.80;;;;;;5034503;28;20017;-73
2023/01/20 00:41:16;;;;;;;57.70;30.67;;;3.70;97.70;;;;;;5052737;28;20044;-73
2023/01/20 00:43:43;;;;;;;51.10;29.23;;;3.70;97.60;;;;;;5051426;28;20052;-73
2023/01/20 00:46:09;;;;;;;53.65;31.77;;;3.70;97.40;;;;;;5033078;28;20020;-73
2023/01/20 00:48:35;;;;;;;54.83;30.48;;;3.70;97.40;;;;;;5043561;28;20021;-74
2023/01/20 00:51:03;;;;;;;54.97;31.75;;;3.70;97.40;;;;;;5039071;28;20037;-73
2023/01/20 00:53:29;;;;;;;62.83;33.92;;;3.70;97.50;;;;;;5035985;28;20026;-73
2023/01/20 00:55:55;;;;;;;60.10;32.47;;;3.70;97.50;;;;;;5032440;28;20083;-73
2023/01/20 00:58:22;;;;;;;57.10;32.40;;;3.60;97.50;;;;;;5045671;28;20815;-73
2023/01/20 01:00:50;;;;;;;64.88;34.83;;;3.60;97.50;;;;;;5057527;28;20029;-74
2023/01/20 01:03:17;;;;;;;57.95;32.70;;;3.50;97.60;;;;;;5059055;28;20081;-73
2023/01/20 01:05:43;;;;;;;56.53;31.40;;;3.50;97.60;;;;;;5038655;28;20109;-72
2023/01/20 01:08:10;;;;;;;61.30;32.40;;;3.50;97.60;;;;;;5051781;28;20032;-72
2023/01/20 01:10:36;;;;;;;59.17;32.38;;;3.50;97.70;;;;;;5040139;28;20032;-73
2023/01/20 01:13:04;;;;;;;63.70;32.28;;;3.40;97.70;;;;;;5045062;28;20017;-73
2023/01/20 01:15:29;;;;;;;56.78;30.88;;;3.40;97.70;;;;;;5029722;28;20029;-73
2023/01/20 01:17:57;;;;;;;52.00;29.70;;;3.40;97.60;;;;;;5044446;28;20024;-75
2023/01/20 01:20:23;;;;;;;57.83;30.58;;;3.40;97.70;;;;;;5042661;28;20389;-74
2023/01/20 01:22:49;;;;;;;60.17;32.50;;;3.30;97.70;;;;;;5034901;28;20068;-74
2023/01/20 01:25:15;;;;;;;56.28;32.33;;;3.30;97.70;;;;;;5023927;28;20068;-73
2023/01/20 01:27:40;;;;;;;55.83;31.55;;;3.30;97.80;;;;;;5034269;28;20070;-73
2023/01/20 01:30:06;;;;;;;57.75;33.13;;;3.30;97.90;;;;;;5051571;28;20507;-73
2023/01/20 01:32:32;;;;;;;58.67;31.67;;;3.30;97.90;;;;;;5052974;28;20020;-74
2023/01/20 01:34:58;;;;;;;57.03;30.75;;;3.40;97.90;;;;;;5035628;28;20703;-73
2023/01/20 01:37:25;;;;;;;52.90;30.02;;;3.40;97.80;;;;;;5043639;28;20035;-74
2023/01/20 01:39:51;;;;;;;46.30;27.27;;;3.40;97.60;;;;;;5058643;28;20052;-73
2023/01/20 01:42:21;;;;;;;47.35;27.25;;;3.50;97.50;;;;;;5045228;28;20056;-73
2023/01/20 01:45:05;;;;;;;;;;;3.50;97.40;;;;;;5041250;28;20025;-72
2023/01/20 01:47:31;;;;;;;47.28;28.42;;;3.50;97.40;;;;;;5029642;28;19908;-72
2023/01/20 01:50:03;;;;;;;49.17;28.20;;;3.50;97.30;;;;;;5050991;28;20035;-73
2023/01/20 01:52:29;;;;;;;49.38;26.92;;;3.40;97.30;;;;;;5047833;28;20071;-73
2023/01/20 01:54:54;;;;;;;44.58;24.77;;;3.40;97.40;;;;;;5046926;28;20028;-73
2023/01/20 01:57:21;;;;;;;45.70;26.95;;;3.50;97.40;;;;;;5032282;28;20033;-72
2023/01/20 01:59:46;;;;;;;43.58;25.92;;;3.50;97.40;;;;;;5051340;28;20036;-73
2023/01/20 02:02:12;;;;;;;38.80;24.52;;;3.50;97.30;;;;;;5059080;28;20428;-73
2023/01/20 02:04:38;;;;;;;44.70;26.00;;;3.50;97.20;;;;;;5046056;28;20498;-74
2023/01/20 02:07:09;;;;;;;42.28;23.88;;;3.50;97.20;;;;;;5044698;28;20054;-74
2023/01/20 02:09:35;;;;;;;39.05;24.13;;;3.50;97.10;;;;;;5041794;28;20105;-73
2023/01/20 02:12:05;;;;;;;41.78;24.42;;;3.50;97.10;;;;;;5047737;28;20103;-74
2023/01/20 02:14:46;;;;;;;42.33;22.73;;;3.50;97.10;;;;;;5046630;28;20598;-73
2023/01/20 02:17:24;;;;;;;42.30;24.95;;;3.40;97.10;;;;;;5035912;28;20035;-73
2023/01/20 02:20:08;;;;;;;46.15;25.85;;;3.40;97.20;;;;;;5049625;28;20029;-74
2023/01/20 02:22:55;;;;;;;46.45;27.67;;;3.40;97.20;;;;;;5040171;28;20030;-72
2023/01/20 02:25:31;;;;;;;46.17;26.48;;;3.40;97.30;;;;;;5029524;28;20148;-73
2023/01/20 02:28:12;;;;;;;44.72;26.35;;;3.50;97.40;;;;;;5052172;28;20385;-72
2023/01/20 02:31:04;;;;;;;41.83;24.13;;;3.50;97.30;;;;;;5053638;28;20054;-72
2023/01/20 02:33:46;;;;;;;45.80;26.25;;;3.50;97.20;;;;;;5031476;28;20033;-73
2023/01/20 02:36:31;;;;;;;46.13;25.40;;;3.50;97.20;;;;;;5048443;28;20048;-72
2023/01/20 02:39:13;;;;;;;44.80;27.38;;;3.60;97.30;;;;;;5033986;28;20337;-72
2023/01/20 02:41:57;;;;;;;45.50;25.80;;;3.60;97.10;;;;;;5066486;28;20032;-72
2023/01/20 02:44:44;;;;;;;46.88;25.45;;;3.60;97.20;;;;;;5040655;28;20025;-73
2023/01/20 02:47:47;;;;;;;46.58;25.30;;;3.50;97.10;;;;;;5054883;28;20040;-73
2023/01/20 02:50:22;;;;;;;52.42;26.25;;;3.60;97.20;;;;;;4970175;28;20043;-73
2023/01/20 02:52:53;;;;;;;48.05;27.05;;;3.60;97.20;;;;;;5050312;28;20036;-73
2023/01/20 02:55:42;;;;;;;44.25;25.10;;;3.60;97.20;;;;;;5049555;28;20103;-73
2023/01/20 02:58:21;;;;;;;47.55;25.25;;;3.60;97.20;;;;;;5046644;28;20131;-73
2023/01/20 03:00:52;;;;;;;47.45;26.20;;;3.60;97.20;;;;;;5062051;28;20033;-73
2023/01/20 03:03:23;;;;;;;50.33;27.13;;;3.60;97.20;;;;;;5032112;28;20371;-74
2023/01/20 03:05:56;;;;;;;50.33;28.50;;;3.40;97.30;;;;;;5045743;28;20028;-73
2023/01/20 03:08:25;;;;;;;51.83;26.80;;;3.30;97.40;;;;;;5033309;28;20036;-73
2023/01/20 03:10:53;;;;;;;50.53;27.90;;;3.30;97.60;;;;;;5048303;28;20025;-73
2023/01/20 03:13:58;;;;;;;49.63;26.48;;;3.30;97.70;;;;;;5033976;28;20318;-73
2023/01/20 03:16:26;;;;;;;51.25;28.73;;;3.30;97.80;;;;;;5034719;28;20410;-74
2023/01/20 03:18:54;;;;;;;55.65;28.35;;;3.20;97.80;;;;;;5056503;28;20028;-72
2023/01/20 03:21:20;;;;;;;57.50;31.92;;;3.20;98.10;;;;;;5055025;28;20750;-73
2023/01/20 03:23:50;;;;;;;59.65;31.38;;;3.20;97.80;;;;;;5043265;28;20036;-73
2023/01/20 03:26:17;;;;;;;56.72;31.33;;;3.20;97.70;;;;;;5039654;28;20032;-74
2023/01/20 03:28:45;;;;;;;55.47;29.80;;;3.20;97.70;;;;;;5065191;28;20024;-74
2023/01/20 03:31:36;;;;;;;62.15;32.05;;;3.20;97.70;;;;;;5046108;28;20052;-74
2023/01/20 03:34:05;;;;;;;55.50;29.48;;;3.20;97.70;;;;;;5036755;28;20100;-74
2023/01/20 03:36:32;;;;;;;50.22;27.00;;;3.10;97.70;;;;;;5044119;28;20169;-73
2023/01/20 03:38:59;;;;;;;60.47;32.17;;;3.20;97.90;;;;;;5052320;28;20124;-74
2023/01/20 03:41:24;;;;;;;62.90;34.97;;;3.20;98.10;;;;;;5043174;28;20043;-74
2023/01/20 03:44:02;;;;;;;62.10;31.15;;;3.30;97.80;;;;;;5056684;28;20703;-74
2023/01/20 03:46:31;;;;;;;71.30;35.28;;;3.10;97.80;;;;;;5039381;28;20502;-72
2023/01/20 03:49:12;;;;;;;67.35;34.35;;;3.20;97.70;;;;;;5039149;28;20043;-73
2023/01/20 03:51:55;;;;;;;70.57;35.17;;;3.20;97.60;;;;;;5040036;28;20049;-73
2023/01/20 03:54:26;;;;;;;69.63;34.95;;;3.20;97.60;;;;;;5031920;28;20026;-73
2023/01/20 03:57:12;;;;;;;71.40;33.97;;;3.30;97.60;;;;;;5043809;28;20044;-74
2023/01/20 03:59:41;;;;;;;70.50;36.40;;;3.20;97.40;;;;;;5049010;28;20033;-74
2023/01/20 04:02:07;;;;;;;65.32;34.30;;;3.20;97.50;;;;;;5033007;28;20033;-73
2023/01/20 04:04:37;;;;;;;68.03;35.40;;;3.20;97.50;;;;;;5055319;28;20028;-74
2023/01/20 04:07:08;;;;;;;68.18;34.50;;;3.20;97.70;;;;;;5049275;28;20502;-73
2023/01/20 04:09:39;;;;;;;66.78;35.25;;;3.20;97.60;;;;;;5047263;28;20100;-74
2023/01/20 04:12:05;;;;;;;69.60;34.05;;;3.10;97.50;;;;;;5033357;28;20017;-74
2023/01/20 04:14:33;;;;;;;65.93;32.20;;;3.10;97.40;;;;;;5029022;28;20017;-73
2023/01/20 04:16:59;;;;;;;76.95;35.17;;;3.00;97.50;;;;;;5029627;28;20040;-73
2023/01/20 04:19:30;;;;;;;65.93;33.08;;;3.00;97.60;;;;;;5045045;28;20036;-75
2023/01/20 04:22:12;;;;;;;68.80;35.17;;;3.10;97.60;;;;;;5045016;28;20037;-73
2023/01/20 04:25:02;;;;;;;71.40;31.13;;;3.10;97.50;;;;;;5041921;28;20475;-72
2023/01/20 04:27:27;;;;;;;70.63;34.45;;;3.10;97.70;;;;;;5039711;28;20709;-74
2023/01/20 04:29:53;;;;;;;83.65;38.40;;;3.00;97.70;;;;;;5048956;28;20137;-75
2023/01/20 04:32:19;;;;;;;93.18;42.10;;;2.90;97.80;;;;;;5059070;28;20025;-74
2023/01/20 04:34:44;;;;;;;86.95;38.30;;;2.90;97.90;;;;;;5042170;28;20024;-75
2023/01/20 04:37:10;;;;;;;82.70;39.83;;;3.00;98.00;;;;;;5034483;28;20548;-73
2023/01/20 04:39:36;;;;;;;77.43;36.50;;;3.00;98.00;;;;;;5041593;28;20033;-74
2023/01/20 04:42:02;;;;;;;88.28;38.13;;;3.00;97.90;;;;;;5040757;28;20029;-73
2023/01/20 04:44:28;;;;;;;85.80;37.80;;;3.00;97.90;;;;;;5045890;28;20066;-74
2023/01/20 04:46:57;;;;;;;73.65;31.80;;;3.10;98.10;;;;;;5042055;28;20060;-73
2023/01/20 04:49:23;;;;;;;84.97;37.63;;;3.10;98.00;;;;;;5034011;28;20021;-73
2023/01/20 04:51:49;;;;;;;63.67;27.58;;;3.00;98.00;;;;;;5049757;28;20022;-73
2023/01/20 04:54:14;;;;;;;81.43;37.70;;;3.00;97.90;;;;;;5025635;28;20030;-74
2023/01/20 04:56:40;;;;;;;78.60;36.20;;;3.10;97.90;;;;;;5021958;28;20055;-74
2023/01/20 04:59:06;;;;;;;74.13;35.28;;;3.10;97.90;;;;;;5046218;28;20043;-74
2023/01/20 05:01:31;;;;;;;68.55;29.90;;;3.10;97.80;;;;;;5046210;28;20036;-74
2023/01/20 05:03:57;;;;;;;69.13;32.88;;;3.10;97.70;;;;;;5039445;28;20060;-74
2023/01/20 05:06:22;;;;;;;75.18;34.65;;;3.00;97.70;;;;;;5036640;28;20387;-74
2023/01/20 05:08:48;;;;;;;71.65;34.40;;;3.00;97.60;;;;;;5049376;28;20108;-73
2023/01/20 05:11:14;;;;;;;70.28;32.38;;;3.00;97.70;;;;;;5054411;28;20025;-74
2023/01/20 05:13:39;;;;;;;66.72;33.25;;;3.00;97.60;;;;;;5047164;28;20033;-72
2023/01/20 05:16:07;;;;;;;71.22;34.17;;;3.10;97.60;;;;;;5024313;28;20034;-73
2023/01/20 05:18:33;;;;;;;67.97;31.77;;;3.10;97.50;;;;;;5044322;28;20040;-73
2023/01/20 05:20:59;;;;;;;68.40;31.95;;;3.10;97.50;;;;;;5049524;28;20119;-73
2023/01/20 05:23:25;;;;;;;62.95;30.67;;;3.10;97.60;;;;;;5032972;28;20435;-73
2023/01/20 05:25:52;;;;;;;60.47;30.00;;;3.10;97.50;;;;;;5037716;28;20031;-73
2023/01/20 05:28:18;;;;;;;68.65;30.40;;;3.10;97.40;;;;;;5036893;28;20074;-73
2023/01/20 05:30:43;;;;;;;69.60;32.22;;;3.10;97.30;;;;;;5037664;28;20442;-72
2023/01/20 05:33:09;;;;;;;59.28;29.60;;;3.10;97.20;;;;;;5068009;28;20028;-73
2023/01/20 05:35:37;;;;;;;67.28;29.98;;;3.20;97.20;;;;;;5051254;28;20029;-73
2023/01/20 05:38:03;;;;;;;62.45;29.17;;;3.20;97.10;;;;;;5049522;28;20039;-73
2023/01/20 05:40:29;;;;;;;61.05;28.40;;;3.10;97.30;;;;;;5019484;28;20028;-73
2023/01/20 05:42:58;;;;;;;61.60;31.13;;;3.20;97.40;;;;;;5048188;28;20021;-73
2023/01/20 05:45:24;;;;;;;61.50;30.70;;;3.10;97.30;;;;;;5030200;28;20025;-74
2023/01/20 05:47:55;;;;;;;58.50;26.85;;;3.10;97.30;;;;;;5055173;28;20024;-74
2023/01/20 05:50:20;;;;;;;56.47;27.25;;;3.00;97.30;;;;;;5034908;28;20409;-72
2023/01/20 05:52:46;;;;;;;54.97;27.95;;;3.00;97.40;;;;;;5040396;28;20025;-73
2023/01/20 05:55:12;;;;;;;52.72;27.23;;;3.10;97.40;;;;;;5041384;28;20044;-74
2023/01/20 05:57:37;;;;;;;57.38;28.25;;;3.00;97.30;;;;;;5042988;28;20025;-73
2023/01/20 06:00:04;;;;;;;55.17;25.80;;;2.90;97.20;;;;;;5046352;28;20026;-74
2023/01/20 06:02:30;;;;;;;58.13;26.75;;;2.90;97.30;;;;;;5045379;28;20487;-73
2023/01/20 06:04:56;;;;;;;56.22;28.05;;;2.90;97.40;;;;;;5020610;28;20079;-73
2023/01/20 06:07:22;;;;;;;59.75;28.40;;;3.00;97.30;;;;;;5045760;28;20391;-74
2023/01/20 06:09:47;;;;;;;58.92;27.30;;;3.00;97.40;;;;;;5044498;28;20503;-74
2023/01/20 06:12:13;;;;;;;50.22;26.83;;;3.00;97.30;;;;;;5042891;28;20051;-74
2023/01/20 06:14:39;;;;;;;56.85;27.35;;;3.10;97.40;;;;;;5040278;28;20029;-74
2023/01/20 06:17:04;;;;;;;60.65;29.67;;;3.10;97.30;;;;;;5037778;28;20040;-74
2023/01/20 06:19:30;;;;;;;57.88;27.92;;;3.00;97.50;;;;;;5028399;28;20062;-74
2023/01/20 06:21:55;;;;;;;47.75;24.95;;;3.10;97.40;;;;;;5022006;28;20032;-73
2023/01/20 06:24:21;;;;;;;56.00;26.67;;;3.00;97.30;;;;;;5022005;28;20063;-74
2023/01/20 06:26:49;;;;;;;61.90;29.55;;;3.00;97.30;;;;;;5034981;28;20029;-75
2023/01/20 06:29:15;;;;;;;62.63;28.95;;;3.00;97.30;;;;;;5063429;28;20036;-75
2023/01/20 06:31:40;;;;;;;53.63;26.75;;;3.00;97.20;;;;;;5055223;28;20025;-74
2023/01/20 06:34:06;;;;;;;50.55;24.02;;;3.00;97.40;;;;;;5057764;28;20403;-74
2023/01/20 06:36:32;;;;;;;60.10;28.80;;;3.00;97.50;;;;;;5044516;28;20025;-74
2023/01/20 06:38:57;;;;;;;58.45;27.58;;;2.90;97.40;;;;;;5044472;28;20033;-73
2023/01/20 06:41:23;;;;;;;52.90;26.80;;;2.90;97.40;;;;;;5052666;28;20040;-74
2023/01/20 06:43:50;;;;;;;49.00;24.45;;;2.90;97.30;;;;;;5039745;28;20104;-73
2023/01/20 06:46:16;;;;;;;52.75;28.00;;;2.90;97.40;;;;;;5040401;28;20376;-74
2023/01/20 06:48:43;;;;;;;49.85;24.95;;;2.90;97.50;;;;;;5043481;28;20028;-74
2023/01/20 06:51:12;;;;;;;54.88;26.58;;;3.00;98.10;;;;;;5040747;28;20017;-74
2023/01/20 06:53:38;;;;;;;58.95;28.83;;;2.90;97.90;;;;;;5050813;28;20039;-73
2023/01/20 06:56:04;;;;;;;65.18;30.33;;;2.90;97.90;;;;;;5041938;28;20051;-75
2023/01/20 06:58:31;;;;;;;63.92;26.90;;;2.90;97.70;;;;;;5021332;28;20084;-74
2023/01/20 07:01:03;;;;;;;57.83;27.45;;;2.90;97.60;;;;;;5068122;28;20115;-74
2023/01/20 07:03:28;;;;;;;60.22;32.03;;;3.00;97.70;;;;;;5038893;28;20031;-74
2023/01/20 07:06:01;;;;;;;61.05;29.73;;;3.00;97.70;;;;;;5048377;28;20025;-74
2023/01/20 07:08:27;;;;;;;60.40;30.02;;;3.10;97.70;;;;;;5022022;28;20398;-74
2023/01/20 07:10:52;;;;;;;58.47;30.00;;;3.10;97.50;;;;;;5043227;28;20510;-74
2023/01/20 07:13:18;;;;;;;63.90;30.05;;;3.10;97.50;;;;;;5034989;28;20025;-74
2023/01/20 07:15:44;;;;;;;59.10;29.38;;;3.10;97.50;;;;;;5039337;28;20136;-75
2023/01/20 07:18:09;;;;;;;59.22;27.92;;;3.10;97.70;;;;;;5017193;28;20480;-74
2023/01/20 07:20:37;;;;;;;61.25;30.80;;;3.10;97.70;;;;;;5048418;28;20473;-75
2023/01/20 07:23:03;;;;;;;67.40;33.90;;;3.10;97.70;;;;;;5031063;28;20029;-75
2023/01/20 07:25:29;;;;;;;58.90;28.77;;;3.10;97.60;;;;;;5050136;28;20051;-75
2023/01/20 07:27:56;;;;;;;67.47;32.70;;;3.10;97.80;;;;;;5057777;28;20029;-74
2023/01/20 07:30:22;;;;;;;58.92;29.60;;;3.00;97.60;;;;;;5058478;28;20044;-74
2023/01/20 07:32:48;;;;;;;57.30;28.08;;;3.00;97.90;;;;;;5036770;28;20475;-73
2023/01/20 07:35:14;;;;;;;49.15;20.55;;;3.00;97.90;;;;;;5030480;28;20075;-74
2023/01/20 07:37:40;;;;;;;53.70;22.80;;;3.20;99.40;;;;;;5037121;28;20048;-75
2023/01/20 07:40:06;;;;;;;25.98;13.25;;;3.30;99.90;;;;;;5026039;28;20192;-74
2023/01/20 07:42:32;;;;;;;61.67;27.17;;;3.50;99.90;;;;;;5042095;28;20025;-75
2023/01/20 07:44:58;;;;;;;57.20;30.17;;;3.40;99.90;;;;;;5024356;28;20043;-74
2023/01/20 07:47:23;;;;;;;62.63;30.52;;;3.40;99.20;;;;;;5044996;28;20025;-74
2023/01/20 07:49:49;;;;;;;62.65;29.42;;;3.40;98.60;;;;;;5037266;28;20036;-75
2023/01/20 07:52:15;;;;;;;67.22;29.92;;;3.50;98.60;;;;;;5051339;28;20441;-74
2023/01/20 07:54:40;;;;;;;63.38;31.75;;;3.40;98.60;;;;;;5042368;28;20031;-74
2023/01/20 07:57:07;;;;;;;63.30;31.58;;;3.40;98.00;;;;;;5055675;28;20020;-73
2023/01/20 07:59:33;;;;;;;61.47;27.58;;;3.40;97.60;;;;;;5022010;28;20148;-74
2023/01/20 08:01:58;;;;;;;60.55;30.65;;;3.50;97.30;;;;;;5041178;28;20133;-74
2023/01/20 08:04:24;;;;;;;61.55;29.40;;;3.50;97.00;;;;;;5050349;28;20036;-74
2023/01/20 08:06:50;;;;;;;65.68;30.52;;;3.40;97.00;;;;;;5038088;28;20031;-74
2023/01/20 08:09:15;;;;;;;64.30;30.85;;;3.40;96.90;;;;;;5040535;28;20025;-74
2023/01/20 08:11:41;;;;;;;62.88;30.38;;;3.40;96.90;;;;;;5063422;28;20103;-73
2023/01/20 08:14:06;;;;;;;66.00;30.00;;;3.30;96.90;;;;;;5040461;28;20044;-74
2023/01/20 08:16:32;;;;;;;68.40;31.85;;;3.40;97.10;;;;;;5052653;28;20686;-74
2023/01/20 08:18:58;;;;;;;55.58;28.08;;;3.30;97.40;;;;;;5067543;28;20017;-72
2023/01/20 08:21:27;;;;;;;56.75;28.42;;;3.30;97.40;;;;;;5053908;28;20032;-74
2023/01/20 08:23:57;;;;;;;65.53;31.75;;;3.30;97.40;;;;;;5023718;28;20026;-74
2023/01/20 08:26:24;;;;;;;52.90;25.40;;;3.30;97.20;;;;;;5040762;28;20024;-74
2023/01/20 08:28:50;;;;;;;64.90;30.80;;;3.30;97.20;;;;;;5042206;28;20024;-75
2023/01/20 08:31:19;;;;;;;58.78;28.63;;;3.40;97.30;;;;;;5034822;28;20159;-73
2023/01/20 08:33:46;;;;;;;65.68;30.63;;;3.40;97.10;;;;;;5036282;28;20480;-74
2023/01/20 08:36:21;;;;;;;69.00;33.05;;;3.40;97.20;;;;;;5015253;28;20107;-74
2023/01/20 08:38:47;;;;;;;73.50;32.65;;;3.40;97.10;;;;;;5032391;28;20037;-75
2023/01/20 08:41:25;;;;;;;67.00;32.97;;;3.50;97.20;;;;;;5030453;28;20037;-74
2023/01/20 08:43:51;;;;;;;75.07;36.05;;;3.50;97.10;;;;;;5036112;28;20025;-73
2023/01/20 08:46:19;;;;;;;67.72;34.22;;;3.50;97.00;;;;;;5040747;28;20506;-74
2023/01/20 08:48:45;;;;;;;73.95;36.03;;;3.60;96.90;;;;;;5051323;28;20017;-75
2023/01/20 08:51:26;;;;;;;64.32;29.90;;;3.60;96.80;;;;;;5038019;28;20082;-74
2023/01/20 08:53:52;;;;;;;70.85;33.72;;;3.50;96.90;;;;;;5059112;28;20036;-74
2023/01/20 08:56:18;;;;;;;55.58;28.13;;;3.50;96.90;;;;;;5040602;28;20037;-73
2023/01/20 08:58:44;;;;;;;63.13;30.20;;;3.50;97.00;;;;;;5052924;28;20107;-73
2023/01/20 09:01:12;;;;;;;72.13;35.30;;;3.50;97.10;;;;;;5036667;28;20042;-74
2023/01/20 09:03:38;;;;;;;65.75;36.17;;;3.50;97.30;;;;;;5041253;28;20120;-75
2023/01/20 09:06:06;;;;;;;57.08;26.98;;;3.50;97.20;;;;;;5034555;28;20028;-75
2023/01/20 09:08:31;;;;;;;60.05;25.33;;;3.50;97.30;;;;;;5040599;28;20028;-74
2023/01/20 09:11:02;;;;;;;35.40;18.63;;;3.50;97.30;;;;;;5062615;28;20032;-75
2023/01/20 09:13:28;;;;;;;36.13;16.73;;;3.60;98.60;;;;;;5055597;28;20020;-75
2023/01/20 09:15:54;;;;;;;26.67;15.02;;;3.80;99.40;;;;;;5046194;28;20634;-75
2023/01/20 09:18:20;;;;;;;33.03;14.95;;;3.90;99.70;;;;;;5038391;28;20021;-73
2023/01/20 09:20:45;;;;;;;56.97;26.52;;;4.00;99.70;;;;;;5053282;28;20043;-73
2023/01/20 09:23:11;;;;;;;58.10;30.17;;;3.90;99.10;;;;;;5038195;28;20378;-74
2023/01/20 09:25:37;;;;;;;59.72;31.65;;;3.90;98.60;;;;;;5037346;28;20029;-70
2023/01/20 09:28:02;;;;;;;55.17;28.80;;;3.80;98.00;;;;;;5031350;28;20047;-72
2023/01/20 09:30:28;;;;;;;58.50;31.70;;;3.80;97.60;;;;;;5035262;28;20088;-74
2023/01/20 09:32:56;;;;;;;66.05;33.25;;;3.80;97.40;;;;;;5037460;28;20029;-73
2023/01/20 09:35:22;;;;;;;68.75;33.67;;;3.80;97.20;;;;;;5028600;28;20016;-73
2023/01/20 09:44:16;;;;;;;58.38;28.52;;;3.80;96.70;;;;;;5042953;28;20047;-71
2023/01/20 09:47:20;;;;;;;56.53;26.63;;;3.80;96.70;;;;;;5023452;28;20029;-71
2023/01/20 09:53:26;;;;;;;66.90;32.33;;;3.60;96.90;;;;;;5037815;28;20505;-73
2023/01/20 09:55:55;;;;;;;61.85;29.77;;;3.50;97.10;;;;;;5044872;28;20283;-71
2023/01/20 09:58:46;;;;;;;62.15;30.15;;;3.50;97.20;;;;;;5044638;28;20164;-72
2023/01/20 10:01:18;;;;;;;64.50;30.33;;;3.40;97.40;;;;;;5045031;28;20033;-72
2023/01/20 10:04:03;;;;;;;61.53;28.58;;;3.50;97.60;;;;;;5029156;28;20026;-72
2023/01/20 10:06:38;;;;;;;61.90;31.70;;;3.50;97.60;;;;;;5039051;28;20017;-72
2023/01/20 10:09:10;;;;;;;70.43;32.28;;;3.50;97.50;;;;;;5036896;28;20021;-72
2023/01/20 10:11:40;;;;;;;69.32;31.83;;;3.50;97.60;;;;;;5058900;28;20021;-72
2023/01/20 10:14:14;;;;;;;57.42;30.25;;;3.60;97.60;;;;;;5029671;28;20388;-71
2023/01/20 10:16:44;;;;;;;60.90;29.80;;;3.60;97.60;;;;;;5034009;28;20123;-72
2023/01/20 10:19:26;;;;;;;56.03;25.38;;;3.70;97.50;;;;;;5043569;28;20381;-72
2023/01/20 10:22:18;;;;;;;61.13;30.98;;;3.60;97.50;;;;;;5046975;28;20033;-72
2023/01/20 10:24:54;;;;;;;64.30;31.10;;;3.70;97.60;;;;;;5040655;28;20365;-74
2023/01/20 10:27:25;;;;;;;63.92;32.33;;;3.70;97.50;;;;;;5045935;28;20131;-72
2023/01/20 10:29:57;;;;;;;59.50;31.15;;;3.70;97.60;;;;;;5034280;28;20389;-72
2023/01/20 10:32:51;;;;;;;56.90;27.83;;;3.70;97.60;;;;;;5041445;28;20039;-72
2023/01/20 10:35:21;;;;;;;59.35;29.77;;;3.70;97.80;;;;;;5023030;28;20037;-72
2023/01/20 10:37:46;;;;;;;;;;;3.70;97.50;;;;;;5042875;28;20072;-72
2023/01/20 10:40:18;;;;;;;58.83;28.88;;;3.70;97.60;;;;;;5039742;28;19972;-71
2023/01/20 10:42:51;;;;;;;58.47;31.60;;;3.70;97.50;;;;;;5054059;28;20381;-71
2023/01/20 10:45:42;;;;;;;58.50;30.70;;;3.70;97.50;;;;;;5032173;28;20033;-71
2023/01/20 10:48:40;;;;;;;59.47;27.95;;;3.80;97.50;;;;;;5025391;28;20031;-72
2023/01/20 10:51:30;;;;;;;64.05;31.27;;;3.80;97.50;;;;;;5011473;28;20037;-72
2023/01/20 10:54:10;;;;;;;52.92;27.15;;;3.80;97.40;;;;;;5031372;28;20029;-71
2023/01/20 10:56:57;;;;;;;49.10;24.70;;;3.90;97.40;;;;;;5018460;28;20076;-71
2023/01/20 10:59:52;;;;;;;45.17;24.05;;;3.90;97.30;;;;;;5050079;28;20033;-72
2023/01/20 11:02:30;;;;;;;63.58;31.13;;;3.80;97.50;;;;;;5048942;28;20040;-72
2023/01/20 11:05:17;;;;;;;54.72;28.75;;;3.90;97.40;;;;;;5051798;28;20028;-72
2023/01/20 11:07:44;;;;;;;49.58;25.20;;;3.90;97.40;;;;;;5038096;28;20156;-73
2023/01/20 11:10:19;;;;;;;51.83;26.77;;;3.90;97.40;;;;;;5049588;28;20033;-72
2023/01/20 11:12:48;;;;;;;54.05;30.58;;;3.90;97.30;;;;;;5054595;28;20077;-72
2023/01/20 11:15:20;;;;;;;55.92;30.70;;;3.90;97.20;;;;;;5035582;28;20041;-73
2023/01/20 11:18:15;;;;;;;54.75;31.50;;;4.00;97.10;;;;;;5046050;28;20020;-73
2023/01/20 11:20:46;;;;;;;53.03;30.50;;;4.00;97.10;;;;;;5040154;28;20037;-74
2023/01/20 11:23:37;;;;;;;52.13;29.70;;;4.10;97.10;;;;;;5050644;28;20032;-73
2023/01/20 11:26:16;;;;;;;47.72;28.70;;;4.20;97.10;;;;;;5041547;28;20029;-73
2023/01/20 11:28:58;;;;;;;45.65;27.48;;;4.30;96.90;;;;;;5051538;28;20613;-73
2023/01/20 11:31:49;;;;;;;47.00;26.70;;;4.30;96.60;;;;;;5046009;28;20052;-73
2023/01/20 11:34:28;;;;;;;44.58;24.83;;;4.40;96.40;;;;;;5049458;28;20156;-73
2023/01/20 11:37:19;;;;;;;44.58;25.30;;;4.40;96.50;;;;;;5032111;28;20053;-74
2023/01/20 11:39:48;;;;;;;42.20;25.63;;;4.20;96.40;;;;;;5028245;28;20029;-74
2023/01/20 11:42:15;;;;;;;41.42;25.40;;;4.10;96.50;;;;;;5030914;28;20043;-74
2023/01/20 11:44:49;;;;;;;38.60;25.27;;;4.10;96.70;;;;;;5042275;28;20022;-74
2023/01/20 11:47:36;;;;;;;45.63;24.95;;;4.20;96.70;;;;;;5016275;28;20025;-74
2023/01/20 11:50:07;;;;;;;34.22;19.70;;;4.20;96.80;;;;;;5043811;28;20562;-73
2023/01/20 11:52:44;;;;;;;37.97;22.98;;;4.10;96.80;;;;;;5017082;28;20057;-73
2023/01/20 11:55:19;;;;;;;38.97;22.92;;;4.10;96.80;;;;;;5039871;28;20025;-74
2023/01/20 11:57:50;;;;;;;39.95;23.95;;;4.10;96.80;;;;;;5036132;28;20356;-74
2023/01/20 12:00:25;;;;;;;41.85;24.17;;;4.10;96.80;;;;;;5051514;28;20036;-74
2023/01/20 12:03:09;;;;;;;35.85;21.52;;;4.30;96.70;;;;;;5013607;28;20060;-73
2023/01/20 12:06:17;;;;;;;33.38;21.40;;;4.20;96.50;;;;;;5037615;28;20021;-72
2023/01/20 12:09:08;;;;;;;33.95;20.10;;;4.10;96.60;;;;;;5030770;28;20029;-73
2023/01/20 12:11:36;;;;;;;;;;;4.10;96.60;;;;;;5038960;28;20026;-74
2023/01/20 12:14:44;;;;;;;40.58;23.35;;;4.20;96.70;;;;;;5038560;28;19909;-73
2023/01/20 12:17:17;;;;;;;34.33;19.63;;;4.10;96.70;;;;;;5034682;28;20078;-74
2023/01/20 12:19:57;;;;;;;36.75;22.63;;;4.10;96.80;;;;;;5042319;28;20128;-74
2023/01/20 12:23:13;;;;;;;39.73;22.40;;;4.10;96.70;;;;;;5018678;28;20036;-74
2023/01/20 12:26:05;;;;;;;35.67;20.50;;;4.10;96.60;;;;;;4959927;28;20436;-74
2023/01/20 12:28:58;;;;;;;32.53;19.83;;;4.10;96.50;;;;;;4963488;28;20047;-74
2023/01/20 12:31:24;;;;;;;32.92;21.13;;;4.10;96.70;;;;;;5025113;28;20049;-75
2023/01/20 12:34:09;;;;;;;36.40;22.25;;;4.10;96.50;;;;;;5029614;28;20124;-74
2023/01/20 12:36:35;;;;;;;30.20;18.02;;;4.10;96.80;;;;;;5046238;28;20021;-73
2023/01/20 12:39:15;;;;;;;31.67;17.60;;;4.10;97.00;;;;;;5030556;28;20029;-74
2023/01/20 12:41:57;;;;;;;34.35;21.15;;;4.10;97.10;;;;;;5045865;28;20728;-74
2023/01/20 12:44:44;;;;;;;29.20;17.80;;;4.10;96.90;;;;;;5027799;28;20391;-73
2023/01/20 12:47:27;;;;;;;32.25;21.48;;;4.00;97.00;;;;;;5038530;28;20403;-73
2023/01/20 12:49:58;;;;;;;31.90;21.23;;;4.10;96.90;;;;;;5032007;28;20045;-74
2023/01/20 12:52:30;;;;;;;29.15;18.58;;;4.00;96.70;;;;;;5048267;28;20112;-75
2023/01/20 12:55:09;;;;;;;32.38;19.80;;;4.10;96.80;;;;;;5017363;28;20026;-75
2023/01/20 12:57:53;;;;;;;26.42;17.48;;;4.10;96.80;;;;;;5046186;28;20020;-74
2023/01/20 13:00:46;;;;;;;26.27;15.43;;;4.20;96.90;;;;;;5034651;28;20129;-74
2023/01/20 13:03:26;;;;;;;25.42;17.20;;;4.10;96.70;;;;;;5036023;28;20040;-74
2023/01/20 13:06:09;;;;;;;23.02;15.07;;;4.20;96.80;;;;;;5050065;28;20061;-76
2023/01/20 13:09:03;;;;;;;26.30;17.40;;;4.20;96.90;;;;;;5052227;28;20039;-74
2023/01/20 13:12:11;;;;;;;25.70;17.58;;;4.20;97.20;;;;;;5039804;28;20030;-75